Time;durP1;ratioP1;P1;durP2;ratioP2;P2;SDS_P1;SDS_P2;PMS_P1;PMS_P2;Temp;Humidity;BMP_temperature;BMP_pressure;BME280_temperature;BME280_humidity;BME280_pressure;Samples;Min_cycle;Max_cycle;Signal;HPM_P1;HPM_P2
2021/11/06 00:01:46;;;;;;;13.75;9.80;;;;;;;;;;5074193;28;20481;-68
2021/11/06 00:04:11;;;;;;;14.63;9.50;;;;;;;;;;5074344;28;20495;-68
2021/11/06 00:06:36;;;;;;;16.63;10.10;;;;;;;;;;5074879;28;20412;-68
2021/11/06 00:09:02;;;;;;;16.10;9.88;;;;;;;;;;5074463;28;20044;-68
2021/11/06 00:11:28;;;;;;;22.23;10.77;;;;;;;;;;5074002;28;20028;-68
2021/11/06 00:13:53;;;;;;;17.75;10.00;;;;;;;;;;5080191;28;20383;-68
2021/11/06 00:16:18;;;;;;;17.00;10.20;;;;;;;;;;5074610;28;20016;-68
2021/11/06 00:18:43;;;;;;;15.68;9.82;;;;;;;;;;5074306;28;20473;-68
2021/11/06 00:21:09;;;;;;;16.60;10.18;;;;;;;;;;5068730;28;20067;-68
2021/11/06 00:23:34;;;;;;;15.60;10.50;;;;;;;;;;5073312;28;20042;-68
2021/11/06 00:25:59;;;;;;;15.65;9.57;;;;;;;;;;5073679;28;20435;-68
2021/11/06 00:28:24;;;;;;;15.35;9.65;;;;;;;;;;5074263;28;20028;-68
2021/11/06 00:30:49;;;;;;;16.08;9.52;;;;;;;;;;5073582;28;20046;-69
2021/11/06 00:33:15;;;;;;;14.98;10.05;;;;;;;;;;5074197;28;20044;-69
2021/11/06 00:35:40;;;;;;;17.35;9.75;;;;;;;;;;5072629;28;20028;-69
2021/11/06 00:38:05;;;;;;;15.30;9.20;;;;;;;;;;5056703;28;20048;-69
2021/11/06 00:40:30;;;;;;;12.45;8.48;;;;;;;;;;5073480;28;20606;-69
2021/11/06 00:42:56;;;;;;;12.65;8.55;;;;;;;;;;5072424;28;20036;-69
2021/11/06 00:45:21;;;;;;;13.90;8.73;;;;;;;;;;5072517;28;20029;-69
2021/11/06 00:47:47;;;;;;;12.63;8.93;;;;;;;;;;5072664;28;20024;-69
2021/11/06 00:50:15;;;;;;;12.88;8.68;;;;;;;;;;5068331;28;20107;-69
2021/11/06 00:52:41;;;;;;;13.75;9.32;;;;;;;;;;5069386;28;20051;-69
2021/11/06 00:55:06;;;;;;;13.18;9.05;;;;;;;;;;5075340;28;20017;-69
2021/11/06 00:57:32;;;;;;;13.15;8.60;;;;;;;;;;5071678;28;20103;-69
2021/11/06 00:59:57;;;;;;;13.88;9.10;;;;;;;;;;5061851;28;20032;-69
2021/11/06 01:02:22;;;;;;;16.23;9.75;;;;;;;;;;5071851;28;20028;-70
2021/11/06 01:04:47;;;;;;;13.02;9.55;;;;;;;;;;5070207;28;20036;-69
2021/11/06 01:07:12;;;;;;;14.00;9.43;;;;;;;;;;5072392;28;20063;-69
2021/11/06 01:09:38;;;;;;;13.23;9.30;;;;;;;;;;5051848;28;20674;-69
2021/11/06 01:12:03;;;;;;;12.40;8.40;;;;;;;;;;5073854;28;20411;-69
2021/11/06 01:14:28;;;;;;;14.13;9.38;;;;;;;;;;5069026;28;20431;-69
2021/11/06 01:16:54;;;;;;;15.07;10.07;;;;;;;;;;5067601;28;20140;-69
2021/11/06 01:19:19;;;;;;;13.73;9.10;;;;;;;;;;5055909;28;20071;-69
2021/11/06 01:21:44;;;;;;;15.38;9.38;;;;;;;;;;5063135;28;20071;-69
2021/11/06 01:24:09;;;;;;;12.50;8.77;;;;;;;;;;5055035;28;20044;-69
2021/11/06 01:26:35;;;;;;;15.50;9.70;;;;;;;;;;5072389;28;20024;-69
2021/11/06 01:29:00;;;;;;;13.27;9.65;;;;;;;;;;5073120;28;20027;-69
2021/11/06 01:31:26;;;;;;;15.95;10.05;;;;;;;;;;5072722;28;20101;-69
2021/11/06 01:33:51;;;;;;;13.93;9.25;;;;;;;;;;5068865;28;20373;-68
2021/11/06 01:36:17;;;;;;;14.35;9.90;;;;;;;;;;5068813;28;20103;-68
2021/11/06 01:38:43;;;;;;;16.05;9.48;;;;;;;;;;5069453;28;20021;-69
2021/11/06 01:41:09;;;;;;;14.38;10.63;;;;;;;;;;5072571;28;20028;-68
2021/11/06 01:43:34;;;;;;;12.93;9.57;;;;;;;;;;5073505;28;20063;-68
2021/11/06 01:46:00;;;;;;;15.15;10.32;;;;;;;;;;5055306;28;20028;-68
2021/11/06 01:48:27;;;;;;;15.23;10.35;;;;;;;;;;5065677;28;20037;-68
2021/11/06 01:50:53;;;;;;;16.52;10.80;;;;;;;;;;5065748;28;20392;-68
2021/11/06 01:53:18;;;;;;;17.00;10.93;;;;;;;;;;5069077;28;20013;-68
2021/11/06 01:55:44;;;;;;;14.00;10.30;;;;;;;;;;5072041;28;20426;-68
2021/11/06 01:58:10;;;;;;;16.20;10.65;;;;;;;;;;5071302;28;20544;-68
2021/11/06 02:00:35;;;;;;;14.35;9.65;;;;;;;;;;5072753;28;20025;-68
2021/11/06 02:03:00;;;;;;;16.13;10.45;;;;;;;;;;5072284;28;20034;-68
2021/11/06 02:05:25;;;;;;;15.18;10.23;;;;;;;;;;5072590;28;20024;-68
2021/11/06 02:07:51;;;;;;;15.57;10.50;;;;;;;;;;5072675;28;20706;-68
2021/11/06 02:10:16;;;;;;;17.10;10.70;;;;;;;;;;5071756;28;20062;-68
2021/11/06 02:12:42;;;;;;;16.25;10.88;;;;;;;;;;5071642;28;20012;-68
2021/11/06 02:15:09;;;;;;;14.13;10.35;;;;;;;;;;5069993;28;20031;-68
2021/11/06 02:17:34;;;;;;;15.73;10.65;;;;;;;;;;5072727;28;20424;-68
2021/11/06 02:19:59;;;;;;;15.48;10.48;;;;;;;;;;5071262;28;20028;-68
2021/11/06 02:22:24;;;;;;;15.07;10.55;;;;;;;;;;5038220;28;20024;-67
2021/11/06 02:24:50;;;;;;;15.95;10.27;;;;;;;;;;5071592;28;20020;-68
2021/11/06 02:27:15;;;;;;;14.80;10.60;;;;;;;;;;5072143;28;20059;-68
2021/11/06 02:29:40;;;;;;;16.35;10.15;;;;;;;;;;5066584;28;20036;-68
2021/11/06 02:32:06;;;;;;;15.48;10.68;;;;;;;;;;5072147;28;20024;-68
2021/11/06 02:34:32;;;;;;;14.73;10.35;;;;;;;;;;5072037;28;20472;-68
2021/11/06 02:36:57;;;;;;;15.15;10.30;;;;;;;;;;5089488;28;20085;-68
2021/11/06 02:39:23;;;;;;;14.60;9.70;;;;;;;;;;5078976;28;20021;-68
2021/11/06 02:41:49;;;;;;;14.77;9.35;;;;;;;;;;5070912;28;20029;-68
2021/11/06 02:44:14;;;;;;;14.55;9.55;;;;;;;;;;5053898;28;20033;-68
2021/11/06 02:46:40;;;;;;;17.35;10.02;;;;;;;;;;5073475;28;20400;-68
2021/11/06 02:49:06;;;;;;;14.82;9.85;;;;;;;;;;5067043;28;20032;-68
2021/11/06 02:51:31;;;;;;;14.38;9.73;;;;;;;;;;5070492;28;20040;-68
2021/11/06 02:53:56;;;;;;;15.80;10.82;;;;;;;;;;5071296;28;20025;-68
2021/11/06 02:56:26;;;;;;;14.73;9.77;;;;;;;;;;5082210;28;20027;-68
2021/11/06 02:58:51;;;;;;;15.65;10.93;;;;;;;;;;5080999;28;20481;-68
2021/11/06 03:01:16;;;;;;;14.35;9.48;;;;;;;;;;5071138;28;20031;-68
2021/11/06 03:03:41;;;;;;;15.25;10.15;;;;;;;;;;5070923;28;20024;-68
2021/11/06 03:06:07;;;;;;;15.90;10.27;;;;;;;;;;5071740;28;20021;-68
2021/11/06 03:08:32;;;;;;;13.55;10.25;;;;;;;;;;5077466;28;20036;-68
2021/11/06 03:10:58;;;;;;;14.88;9.95;;;;;;;;;;5077160;28;20136;-68
2021/11/06 03:13:23;;;;;;;14.57;10.40;;;;;;;;;;5052951;28;20400;-68
2021/11/06 03:15:48;;;;;;;14.38;10.10;;;;;;;;;;5071631;28;20035;-68
2021/11/06 03:18:13;;;;;;;14.73;10.48;;;;;;;;;;5054104;28;20142;-68
2021/11/06 03:20:39;;;;;;;14.88;10.25;;;;;;;;;;5078521;28;20028;-68
2021/11/06 03:23:04;;;;;;;14.20;9.95;;;;;;;;;;5064245;28;20063;-68
2021/11/06 03:25:29;;;;;;;14.70;10.52;;;;;;;;;;5064754;28;20448;-68
2021/11/06 03:27:56;;;;;;;15.65;11.40;;;;;;;;;;5071723;28;20446;-68
2021/11/06 03:30:21;;;;;;;15.65;10.88;;;;;;;;;;5078863;28;20040;-68
2021/11/06 03:32:47;;;;;;;16.10;10.50;;;;;;;;;;5095508;28;20012;-68
2021/11/06 03:35:13;;;;;;;18.17;11.18;;;;;;;;;;5095271;28;20024;-68
2021/11/06 03:37:39;;;;;;;17.42;11.00;;;;;;;;;;5069922;28;20380;-68
2021/11/06 03:40:04;;;;;;;14.02;10.18;;;;;;;;;;5110312;28;20027;-68
2021/11/06 03:42:30;;;;;;;14.52;10.50;;;;;;;;;;5095629;28;20074;-68
2021/11/06 03:44:55;;;;;;;14.25;9.73;;;;;;;;;;5094652;28;20024;-68
2021/11/06 03:47:21;;;;;;;15.43;10.00;;;;;;;;;;5095834;28;20020;-68
2021/11/06 03:49:46;;;;;;;15.30;9.77;;;;;;;;;;5095815;28;20414;-68
2021/11/06 03:52:12;;;;;;;16.35;10.07;;;;;;;;;;5091013;28;20024;-68
2021/11/06 03:54:37;;;;;;;14.18;10.57;;;;;;;;;;5094491;28;20024;-68
2021/11/06 03:57:03;;;;;;;12.38;9.55;;;;;;;;;;5094924;28;20016;-68
2021/11/06 03:59:28;;;;;;;14.20;10.00;;;;;;;;;;5089345;28;20376;-68
2021/11/06 04:01:53;;;;;;;13.75;9.40;;;;;;;;;;5076900;28;20379;-68
2021/11/06 04:04:18;;;;;;;14.52;10.20;;;;;;;;;;5095277;28;20403;-68
2021/11/06 04:06:43;;;;;;;17.02;10.75;;;;;;;;;;5076397;28;20028;-68
2021/11/06 04:09:09;;;;;;;16.73;10.70;;;;;;;;;;5091950;28;20028;-68
2021/11/06 04:11:34;;;;;;;13.18;9.57;;;;;;;;;;5094696;28;20043;-68
2021/11/06 04:13:59;;;;;;;13.93;9.95;;;;;;;;;;5094913;28;20103;-68
2021/11/06 04:16:24;;;;;;;13.02;9.77;;;;;;;;;;5094550;28;20076;-68
2021/11/06 04:18:49;;;;;;;14.88;9.65;;;;;;;;;;5094758;28;20461;-68
2021/11/06 04:21:15;;;;;;;12.40;8.75;;;;;;;;;;5091300;28;20043;-68
2021/11/06 04:23:40;;;;;;;12.25;9.57;;;;;;;;;;5088227;28;20027;-68
2021/11/06 04:26:05;;;;;;;13.38;10.25;;;;;;;;;;5093645;28;20031;-68
2021/11/06 04:28:30;;;;;;;14.95;8.90;;;;;;;;;;5094785;28;20038;-68
2021/11/06 04:30:56;;;;;;;14.05;9.80;;;;;;;;;;5094460;28;20055;-68
2021/11/06 04:33:21;;;;;;;15.90;11.13;;;;;;;;;;5094403;28;20042;-68
2021/11/06 04:35:46;;;;;;;12.82;10.10;;;;;;;;;;5094783;28;20040;-68
2021/11/06 04:38:11;;;;;;;14.13;10.52;;;;;;;;;;5070681;28;20031;-68
2021/11/06 04:40:37;;;;;;;13.75;10.40;;;;;;;;;;5094074;28;20028;-68
2021/11/06 04:43:02;;;;;;;14.15;10.05;;;;;;;;;;5093973;28;20055;-68
2021/11/06 04:45:27;;;;;;;14.77;10.57;;;;;;;;;;5094527;28;20030;-68
2021/11/06 04:47:53;;;;;;;15.98;10.32;;;;;;;;;;5094441;28;20052;-68
2021/11/06 04:50:18;;;;;;;14.70;9.77;;;;;;;;;;5094309;28;20503;-68
2021/11/06 04:52:43;;;;;;;17.15;11.18;;;;;;;;;;5090656;28;20085;-69
2021/11/06 04:55:10;;;;;;;13.57;10.45;;;;;;;;;;5093276;28;20514;-68
2021/11/06 04:57:35;;;;;;;14.93;10.13;;;;;;;;;;5094165;28;20039;-68
2021/11/06 05:00:00;;;;;;;14.18;10.38;;;;;;;;;;5094011;28;20400;-69
2021/11/06 05:02:26;;;;;;;14.32;10.02;;;;;;;;;;5094507;28;20016;-68
2021/11/06 05:04:51;;;;;;;15.52;10.27;;;;;;;;;;5093374;28;20074;-68
2021/11/06 05:07:17;;;;;;;16.13;10.80;;;;;;;;;;5093983;28;20384;-69
2021/11/06 05:09:45;;;;;;;15.65;11.10;;;;;;;;;;5093374;28;20062;-68
2021/11/06 05:12:11;;;;;;;13.50;10.07;;;;;;;;;;5093660;28;20067;-68
2021/11/06 05:14:36;;;;;;;14.57;10.07;;;;;;;;;;5075636;28;20115;-68
2021/11/06 05:17:02;;;;;;;18.85;11.20;;;;;;;;;;5074073;28;20119;-68
2021/11/06 05:19:27;;;;;;;16.35;10.75;;;;;;;;;;5097659;28;20027;-69
2021/11/06 05:21:53;;;;;;;16.58;11.48;;;;;;;;;;5090092;28;20028;-68
2021/11/06 05:24:19;;;;;;;14.32;10.30;;;;;;;;;;5093241;28;20063;-68
2021/11/06 05:26:44;;;;;;;16.83;10.70;;;;;;;;;;5076476;28;20136;-68
2021/11/06 05:29:09;;;;;;;15.23;10.52;;;;;;;;;;5093310;28;20107;-70
2021/11/06 05:31:36;;;;;;;15.82;9.90;;;;;;;;;;5092522;28;20101;-67
2021/11/06 05:34:01;;;;;;;15.98;10.85;;;;;;;;;;5093506;28;20020;-68
2021/11/06 05:36:28;;;;;;;13.60;9.85;;;;;;;;;;5092146;28;20054;-68
2021/11/06 05:38:54;;;;;;;13.95;10.02;;;;;;;;;;5092982;28;20038;-68
2021/11/06 05:41:19;;;;;;;14.35;10.00;;;;;;;;;;5092649;28;20111;-68
2021/11/06 05:43:44;;;;;;;17.42;11.20;;;;;;;;;;5093116;28;20028;-68
2021/11/06 05:46:10;;;;;;;15.10;9.98;;;;;;;;;;5093046;28;20052;-69
2021/11/06 05:48:35;;;;;;;15.40;9.63;;;;;;;;;;5092900;28;20043;-68
2021/11/06 05:51:00;;;;;;;14.40;10.40;;;;;;;;;;5089419;28;20283;-68
2021/11/06 05:53:25;;;;;;;16.00;10.07;;;;;;;;;;5091583;28;20479;-68
2021/11/06 05:55:50;;;;;;;16.63;11.00;;;;;;;;;;5092671;28;20375;-68
2021/11/06 05:58:16;;;;;;;14.55;10.57;;;;;;;;;;5092299;28;20051;-68
2021/11/06 06:00:41;;;;;;;12.27;9.45;;;;;;;;;;5092673;28;20032;-68
2021/11/06 06:03:06;;;;;;;13.70;9.55;;;;;;;;;;5092694;28;20031;-68
2021/11/06 06:05:32;;;;;;;12.70;8.90;;;;;;;;;;5092350;28;20035;-68
2021/11/06 06:07:57;;;;;;;15.27;9.73;;;;;;;;;;5092336;28;20383;-69
2021/11/06 06:10:22;;;;;;;13.43;9.98;;;;;;;;;;5091996;28;20027;-69
2021/11/06 06:12:51;;;;;;;15.02;10.93;;;;;;;;;;5090310;28;20093;-69
2021/11/06 06:15:16;;;;;;;15.80;10.35;;;;;;;;;;5091465;28;20387;-69
2021/11/06 06:17:42;;;;;;;17.98;10.52;;;;;;;;;;5073859;28;20553;-69
2021/11/06 06:20:08;;;;;;;19.35;10.68;;;;;;;;;;5094669;28;20661;-69
2021/11/06 06:22:33;;;;;;;15.85;11.50;;;;;;;;;;5072351;28;20024;-69
2021/11/06 06:24:58;;;;;;;16.20;11.82;;;;;;;;;;5090914;28;20234;-69
2021/11/06 06:27:24;;;;;;;16.55;12.05;;;;;;;;;;5091200;28;20025;-69
2021/11/06 06:29:49;;;;;;;17.33;11.98;;;;;;;;;;5093410;28;20462;-69
2021/11/06 06:32:14;;;;;;;14.75;10.65;;;;;;;;;;5062746;28;20082;-69
2021/11/06 06:34:39;;;;;;;14.27;10.18;;;;;;;;;;5073255;28;20063;-69
2021/11/06 06:37:05;;;;;;;14.60;9.80;;;;;;;;;;5071839;28;20016;-69
2021/11/06 06:39:30;;;;;;;16.75;10.45;;;;;;;;;;5073365;28;20024;-69
2021/11/06 06:41:55;;;;;;;15.70;11.30;;;;;;;;;;5072609;28;20025;-69
2021/11/06 06:44:20;;;;;;;17.58;11.32;;;;;;;;;;5085685;28;20108;-69
2021/11/06 06:46:46;;;;;;;15.00;11.02;;;;;;;;;;5075270;28;20103;-69
2021/11/06 06:49:11;;;;;;;14.70;10.07;;;;;;;;;;5080962;28;20067;-67
2021/11/06 06:51:37;;;;;;;17.65;11.23;;;;;;;;;;5072777;28;20040;-68
2021/11/06 06:54:02;;;;;;;15.10;10.55;;;;;;;;;;5073436;28;20021;-67
2021/11/06 06:56:27;;;;;;;15.18;10.13;;;;;;;;;;5078699;28;20031;-68
2021/11/06 06:58:52;;;;;;;12.40;9.25;;;;;;;;;;5077751;28;20032;-68
2021/11/06 07:01:17;;;;;;;14.20;9.60;;;;;;;;;;5070325;28;20025;-69
2021/11/06 07:03:43;;;;;;;14.18;9.52;;;;;;;;;;5071723;28;20108;-68
2021/11/06 07:06:08;;;;;;;14.65;10.25;;;;;;;;;;5062879;28;20033;-68
2021/11/06 07:08:33;;;;;;;12.98;9.70;;;;;;;;;;5079104;28;20032;-68
2021/11/06 07:10:58;;;;;;;14.52;10.23;;;;;;;;;;5049786;28;20546;-69
2021/11/06 07:13:24;;;;;;;13.15;9.68;;;;;;;;;;5053723;28;20024;-68
2021/11/06 07:15:50;;;;;;;15.30;10.60;;;;;;;;;;5086014;28;20016;-68
2021/11/06 07:18:15;;;;;;;14.45;10.13;;;;;;;;;;5078556;28;20363;-68
2021/11/06 07:20:41;;;;;;;13.27;10.02;;;;;;;;;;5034683;28;20035;-68
2021/11/06 07:23:06;;;;;;;13.90;10.73;;;;;;;;;;5065549;28;20037;-68
2021/11/06 07:25:31;;;;;;;14.85;9.82;;;;;;;;;;5069936;28;20029;-68
2021/11/06 07:27:56;;;;;;;14.73;10.70;;;;;;;;;;5072338;28;20055;-68
2021/11/06 07:30:22;;;;;;;15.52;12.18;;;;;;;;;;5070005;28;20049;-69
2021/11/06 07:32:48;;;;;;;15.40;11.55;;;;;;;;;;5078076;28;20040;-68
2021/11/06 07:35:13;;;;;;;17.27;11.80;;;;;;;;;;5086019;28;20057;-68
2021/11/06 07:37:38;;;;;;;16.60;11.57;;;;;;;;;;5067656;28;20507;-69
2021/11/06 07:40:07;;;;;;;15.88;10.48;;;;;;;;;;5070733;28;20651;-68
2021/11/06 07:42:33;;;;;;;17.70;12.15;;;;;;;;;;5081724;28;20472;-68
2021/11/06 07:44:58;;;;;;;18.92;12.98;;;;;;;;;;5071446;28;20230;-68
2021/11/06 07:47:23;;;;;;;16.90;11.68;;;;;;;;;;5071438;28;20115;-68
2021/11/06 07:49:48;;;;;;;16.63;11.05;;;;;;;;;;5053696;28;20050;-68
2021/11/06 07:52:13;;;;;;;17.13;12.80;;;;;;;;;;5065498;28;20058;-68
2021/11/06 07:54:39;;;;;;;19.17;12.52;;;;;;;;;;5076267;28;20170;-68
2021/11/06 07:57:04;;;;;;;14.73;11.70;;;;;;;;;;5068009;28;20108;-68
2021/11/06 07:59:29;;;;;;;16.77;12.50;;;;;;;;;;5070466;28;20032;-68
2021/11/06 08:01:55;;;;;;;17.40;11.35;;;;;;;;;;5067990;28;20388;-68
2021/11/06 08:04:20;;;;;;;15.60;11.50;;;;;;;;;;5055719;28;20039;-68
2021/11/06 08:06:45;;;;;;;14.32;11.80;;;;;;;;;;5057568;28;20027;-68
2021/11/06 08:09:10;;;;;;;16.85;12.05;;;;;;;;;;5080565;28;20107;-68
2021/11/06 08:11:36;;;;;;;16.98;11.80;;;;;;;;;;5087113;28;20468;-68
2021/11/06 08:14:01;;;;;;;15.07;12.75;;;;;;;;;;5068343;28;20029;-68
2021/11/06 08:16:26;;;;;;;16.55;11.48;;;;;;;;;;5071129;28;20416;-68
2021/11/06 08:18:51;;;;;;;16.45;11.63;;;;;;;;;;5085458;28;20015;-68
2021/11/06 08:21:17;;;;;;;14.75;11.07;;;;;;;;;;5069066;28;20025;-68
2021/11/06 08:23:42;;;;;;;15.52;10.73;;;;;;;;;;5070201;28;20059;-68
2021/11/06 08:26:08;;;;;;;14.35;10.52;;;;;;;;;;5068260;28;20012;-68
2021/11/06 08:28:34;;;;;;;17.63;12.60;;;;;;;;;;5074478;28;20028;-68
2021/11/06 08:30:59;;;;;;;14.63;9.70;;;;;;;;;;5055101;28;20551;-68
2021/11/06 08:33:24;;;;;;;14.25;9.80;;;;;;;;;;5073323;28;20027;-68
2021/11/06 08:35:49;;;;;;;14.18;10.38;;;;;;;;;;5056256;28;20032;-68
2021/11/06 08:38:15;;;;;;;11.98;9.73;;;;;;;;;;5073510;28;20031;-68
2021/11/06 08:40:41;;;;;;;12.15;10.13;;;;;;;;;;5073308;28;20039;-68
2021/11/06 08:43:06;;;;;;;11.73;9.43;;;;;;;;;;5073351;28;20025;-68
2021/11/06 08:45:31;;;;;;;10.98;8.85;;;;;;;;;;5073704;28;20020;-68
2021/11/06 08:47:57;;;;;;;10.93;8.95;;;;;;;;;;5074048;28;20531;-68
2021/11/06 08:50:23;;;;;;;12.68;9.57;;;;;;;;;;5072298;28;20048;-68
2021/11/06 08:52:50;;;;;;;12.45;8.30;;;;;;;;;;5072876;28;20024;-68
2021/11/06 08:55:15;;;;;;;11.98;9.43;;;;;;;;;;5070114;28;20025;-68
2021/11/06 08:57:41;;;;;;;12.32;8.10;;;;;;;;;;5071297;28;20118;-68
2021/11/06 09:00:25;;;;;;;11.85;8.75;;;;;;;;;;5065488;28;20389;-68
2021/11/06 09:02:50;;;;;;;11.15;8.25;;;;;;;;;;5065255;28;20025;-68
2021/11/06 09:05:15;;;;;;;12.68;8.43;;;;;;;;;;5071408;28;20021;-68
2021/11/06 09:07:41;;;;;;;10.25;7.13;;;;;;;;;;5073241;28;20024;-68
2021/11/06 09:10:07;;;;;;;11.65;7.93;;;;;;;;;;5054514;28;20017;-68
2021/11/06 09:12:32;;;;;;;7.70;6.38;;;;;;;;;;5053684;28;20033;-68
2021/11/06 09:14:58;;;;;;;9.23;6.72;;;;;;;;;;5067512;28;20026;-68
2021/11/06 09:17:23;;;;;;;8.15;6.32;;;;;;;;;;5071674;28;20388;-68
2021/11/06 09:19:50;;;;;;;7.47;6.47;;;;;;;;;;5072799;28;20120;-68
2021/11/06 09:22:15;;;;;;;8.60;5.90;;;;;;;;;;5081618;28;20020;-68
2021/11/06 09:24:40;;;;;;;8.25;6.00;;;;;;;;;;5083643;28;20507;-68
2021/11/06 09:27:06;;;;;;;8.27;6.03;;;;;;;;;;5074070;28;20024;-68
2021/11/06 09:29:31;;;;;;;7.50;6.20;;;;;;;;;;5073273;28;20028;-68
2021/11/06 09:31:56;;;;;;;7.47;6.32;;;;;;;;;;5073308;28;20279;-68
2021/11/06 09:34:21;;;;;;;7.45;6.07;;;;;;;;;;5072546;28;20024;-68
2021/11/06 09:36:47;;;;;;;8.35;6.35;;;;;;;;;;5072221;28;20028;-68
2021/11/06 09:39:13;;;;;;;8.43;6.43;;;;;;;;;;5083518;28;20036;-68
2021/11/06 09:41:39;;;;;;;6.88;5.97;;;;;;;;;;5069671;28;20025;-67
2021/11/06 09:44:04;;;;;;;7.07;6.00;;;;;;;;;;5070801;28;20017;-67
2021/11/06 09:46:30;;;;;;;8.75;6.20;;;;;;;;;;5072154;28;20540;-72
2021/11/06 09:48:55;;;;;;;6.88;5.72;;;;;;;;;;5072948;28;20532;-70
2021/11/06 09:51:21;;;;;;;7.47;6.13;;;;;;;;;;5068610;28;20483;-70
2021/11/06 09:53:48;;;;;;;6.47;5.45;;;;;;;;;;5071040;28;20032;-70
2021/11/06 09:56:15;;;;;;;8.63;4.97;;;;;;;;;;5071607;28;20477;-68
2021/11/06 09:58:41;;;;;;;6.47;5.22;;;;;;;;;;5051977;28;21750;-69
2021/11/06 10:01:06;;;;;;;6.80;5.22;;;;;;;;;;5072526;28;20074;-70
2021/11/06 10:03:31;;;;;;;5.50;4.72;;;;;;;;;;5072397;28;20028;-70
2021/11/06 10:05:57;;;;;;;7.30;5.68;;;;;;;;;;5071605;28;20105;-71
2021/11/06 10:08:24;;;;;;;5.00;4.22;;;;;;;;;;5072096;28;20023;-71
2021/11/06 10:10:51;;;;;;;5.13;4.18;;;;;;;;;;5071258;28;20027;-69
2021/11/06 10:13:16;;;;;;;6.32;4.60;;;;;;;;;;5072034;28;20048;-71
2021/11/06 10:15:43;;;;;;;6.95;4.25;;;;;;;;;;5069635;28;20044;-74
2021/11/06 10:18:12;;;;;;;4.90;3.90;;;;;;;;;;5068986;28;20020;-72
2021/11/06 10:20:39;;;;;;;5.70;4.00;;;;;;;;;;5068681;28;20465;-76
2021/11/06 10:23:07;;;;;;;5.25;4.50;;;;;;;;;;5066225;28;20569;-76
2021/11/06 10:25:32;;;;;;;4.60;4.07;;;;;;;;;;5069358;28;20016;-76
2021/11/06 10:27:59;;;;;;;4.22;3.83;;;;;;;;;;5070408;28;20111;-77
2021/11/06 10:30:26;;;;;;;4.43;3.92;;;;;;;;;;5069918;28;20102;-76
2021/11/06 10:33:10;;;;;;;5.28;4.38;;;;;;;;;;5071348;28;20024;-76
2021/11/06 10:35:43;;;;;;;5.00;3.90;;;;;;;;;;5053219;28;20451;-76
2021/11/06 10:38:14;;;;;;;5.30;3.97;;;;;;;;;;5070652;28;20050;-77
2021/11/06 10:40:52;;;;;;;4.85;3.95;;;;;;;;;;5052433;28;20045;-77
2021/11/06 10:43:19;;;;;;;5.80;4.28;;;;;;;;;;5044637;28;20021;-77
2021/11/06 10:45:49;;;;;;;5.13;3.90;;;;;;;;;;5061081;28;20031;-77
2021/11/06 10:48:18;;;;;;;6.25;4.03;;;;;;;;;;5070444;28;20032;-77
2021/11/06 10:50:49;;;;;;;6.32;4.15;;;;;;;;;;5051805;28;20016;-77
2021/11/06 10:53:31;;;;;;;4.82;3.78;;;;;;;;;;5060996;28;20066;-77
2021/11/06 10:55:57;;;;;;;7.10;4.45;;;;;;;;;;5059469;28;20012;-77
2021/11/06 10:58:24;;;;;;;4.88;4.32;;;;;;;;;;5071803;28;20024;-77
2021/11/06 11:00:54;;;;;;;5.55;4.43;;;;;;;;;;5081937;28;20020;-78
2021/11/06 11:03:23;;;;;;;5.45;4.05;;;;;;;;;;5075208;28;20132;-78
2021/11/06 11:05:49;;;;;;;4.90;4.18;;;;;;;;;;5062236;28;20066;-77
2021/11/06 11:08:14;;;;;;;6.18;4.28;;;;;;;;;;5056213;28;20020;-78
2021/11/06 11:10:40;;;;;;;5.13;4.50;;;;;;;;;;5053702;28;20028;-77
2021/11/06 11:13:19;;;;;;;4.70;4.07;;;;;;;;;;5054104;28;20036;-78
2021/11/06 11:15:47;;;;;;;5.35;4.85;;;;;;;;;;5057972;28;20051;-77
2021/11/06 11:18:29;;;;;;;5.25;3.90;;;;;;;;;;5071485;28;20047;-77
2021/11/06 11:20:54;;;;;;;5.18;4.28;;;;;;;;;;5055608;28;20468;-78
2021/11/06 11:23:22;;;;;;;3.90;3.42;;;;;;;;;;5069827;28;20048;-77
2021/11/06 11:25:48;;;;;;;6.85;4.25;;;;;;;;;;5053124;28;20059;-77
2021/11/06 11:28:13;;;;;;;5.72;4.00;;;;;;;;;;5071333;28;20440;-77
2021/11/06 11:30:39;;;;;;;5.15;4.38;;;;;;;;;;5069390;28;20053;-76
2021/11/06 11:33:04;;;;;;;5.82;4.88;;;;;;;;;;5053421;28;20029;-77
2021/11/06 11:35:30;;;;;;;5.00;4.50;;;;;;;;;;5070828;28;20040;-77
2021/11/06 11:37:56;;;;;;;4.82;4.30;;;;;;;;;;5071248;28;20136;-77
2021/11/06 11:40:22;;;;;;;5.45;4.95;;;;;;;;;;5066427;28;20396;-78
2021/11/06 11:43:13;;;;;;;4.60;4.20;;;;;;;;;;5084362;28;20024;-76
2021/11/06 11:45:42;;;;;;;4.18;3.78;;;;;;;;;;5069276;28;20103;-78
2021/11/06 11:48:18;;;;;;;4.53;3.53;;;;;;;;;;5070879;28;20032;-77
2021/11/06 11:50:44;;;;;;;4.85;4.35;;;;;;;;;;5055597;28;20040;-77
2021/11/06 11:53:12;;;;;;;5.90;4.50;;;;;;;;;;5090401;28;20372;-77
2021/11/06 11:55:42;;;;;;;4.93;4.32;;;;;;;;;;5055977;28;20464;-77
2021/11/06 11:58:09;;;;;;;4.88;4.38;;;;;;;;;;5074262;28;20019;-77
2021/11/06 12:00:35;;;;;;;5.70;4.60;;;;;;;;;;5084806;28;20028;-77
2021/11/06 12:03:01;;;;;;;5.93;4.43;;;;;;;;;;5077171;28;20104;-77
2021/11/06 12:05:26;;;;;;;5.05;4.55;;;;;;;;;;5056612;28;20060;-77
2021/11/06 12:08:10;;;;;;;5.03;4.40;;;;;;;;;;5074755;28;20079;-77
2021/11/06 12:10:48;;;;;;;4.28;3.88;;;;;;;;;;5055867;28;20024;-77
2021/11/06 12:13:31;;;;;;;4.90;4.03;;;;;;;;;;5073432;28;20025;-77
2021/11/06 12:16:14;;;;;;;5.75;4.68;;;;;;;;;;5072819;28;20447;-77
2021/11/06 12:18:54;;;;;;;5.40;4.90;;;;;;;;;;5074924;28;20027;-77
2021/11/06 12:21:21;;;;;;;5.70;4.63;;;;;;;;;;5054123;28;20031;-77
2021/11/06 12:23:47;;;;;;;6.43;4.70;;;;;;;;;;5060089;28;20488;-77
2021/11/06 12:26:13;;;;;;;5.70;4.65;;;;;;;;;;5082630;28;20028;-78
2021/11/06 12:28:39;;;;;;;4.85;3.45;;;;;;;;;;5057119;28;20047;-78
2021/11/06 12:31:23;;;;;;;4.22;3.35;;;;;;;;;;5065381;28;20423;-78
2021/11/06 12:33:49;;;;;;;4.47;3.45;;;;;;;;;;5087194;28;20480;-78
2021/11/06 12:36:18;;;;;;;5.68;3.90;;;;;;;;;;5092549;28;20023;-78
2021/11/06 12:38:43;;;;;;;5.47;3.80;;;;;;;;;;5101271;28;20020;-77
2021/11/06 12:41:10;;;;;;;5.53;4.00;;;;;;;;;;5099868;28;20031;-76
2021/11/06 12:43:47;;;;;;;7.20;4.13;;;;;;;;;;5093117;28;20115;-76
2021/11/06 12:46:22;;;;;;;4.60;3.80;;;;;;;;;;5075639;28;20020;-76
2021/11/06 12:48:47;;;;;;;4.70;4.00;;;;;;;;;;5076002;28;20031;-76
2021/11/06 12:51:14;;;;;;;5.03;3.20;;;;;;;;;;5071214;28;20469;-77
2021/11/06 12:53:41;;;;;;;5.78;5.07;;;;;;;;;;5089777;28;20481;-78
2021/11/06 12:56:12;;;;;;;5.88;4.53;;;;;;;;;;5067367;28;20464;-78
2021/11/06 12:58:38;;;;;;;4.68;4.20;;;;;;;;;;5093981;28;20022;-79
2021/11/06 13:01:33;;;;;;;6.45;5.07;;;;;;;;;;5083912;28;20035;-79
2021/11/06 13:03:59;;;;;;;5.75;4.25;;;;;;;;;;5079397;28;20028;-78
2021/11/06 13:06:25;;;;;;;5.15;4.07;;;;;;;;;;5091159;28;20043;-78
2021/11/06 13:09:06;;;;;;;6.43;4.03;;;;;;;;;;5071115;28;20081;-74
2021/11/06 13:11:50;;;;;;;5.72;4.43;;;;;;;;;;5094770;28;20024;-68
2021/11/06 13:14:34;;;;;;;5.20;3.55;;;;;;;;;;5092543;28;20023;-73
2021/11/06 13:17:01;;;;;;;4.28;3.50;;;;;;;;;;5092152;28;20020;-74
2021/11/06 13:19:42;;;;;;;4.28;3.00;;;;;;;;;;5092945;28;20408;-73
2021/11/06 13:22:07;;;;;;;5.22;2.85;;;;;;;;;;5063049;28;20442;-73
2021/11/06 13:24:52;;;;;;;3.88;2.97;;;;;;;;;;5090665;28;20131;-74
2021/11/06 13:27:36;;;;;;;5.13;3.60;;;;;;;;;;5093850;28;20020;-73
2021/11/06 13:30:31;;;;;;;4.43;3.05;;;;;;;;;;5091885;28;20024;-68
2021/11/06 13:32:58;;;;;;;3.03;2.72;;;;;;;;;;5080450;28;20499;-72
2021/11/06 13:35:43;;;;;;;3.53;3.00;;;;;;;;;;5090366;28;20107;-72
2021/11/06 13:38:08;;;;;;;;;;;;;;;;;;5087966;28;20061;-73
2021/11/06 13:40:43;;;;;;;4.18;2.90;;;;;;;;;;5092369;28;20018;-71
2021/11/06 13:43:35;;;;;;;5.10;3.55;;;;;;;;;;5094931;28;20027;-70
2021/11/06 13:46:08;;;;;;;4.90;3.17;;;;;;;;;;5079701;28;20072;-76
2021/11/06 13:48:39;;;;;;;4.05;2.78;;;;;;;;;;5092144;28;20028;-71
2021/11/06 13:51:17;;;;;;;4.25;2.90;;;;;;;;;;5084724;28;20016;-72
2021/11/06 13:54:01;;;;;;;3.42;2.92;;;;;;;;;;5090692;28;20024;-74
2021/11/06 13:56:27;;;;;;;3.05;2.25;;;;;;;;;;5092571;28;20016;-70
2021/11/06 13:58:57;;;;;;;5.13;2.90;;;;;;;;;;5093088;28;20043;-69
2021/11/06 14:01:24;;;;;;;3.58;2.80;;;;;;;;;;5067514;28;20020;-80
2021/11/06 14:03:49;;;;;;;5.25;3.30;;;;;;;;;;5088148;28;20062;-71
2021/11/06 14:06:15;;;;;;;4.05;3.17;;;;;;;;;;5104858;28;20064;-72
2021/11/06 14:08:40;;;;;;;4.65;2.72;;;;;;;;;;5094966;28;20118;-74
2021/11/06 14:11:05;;;;;;;5.93;3.58;;;;;;;;;;5094263;28;20487;-75
2021/11/06 14:13:31;;;;;;;6.30;3.97;;;;;;;;;;5086768;28;20020;-75
2021/11/06 14:15:56;;;;;;;4.03;3.63;;;;;;;;;;5105835;28;20023;-76
2021/11/06 14:18:22;;;;;;;4.97;3.90;;;;;;;;;;5095451;28;20110;-76
2021/11/06 14:20:53;;;;;;;3.90;3.50;;;;;;;;;;5084120;28;20029;-75
2021/11/06 14:23:31;;;;;;;4.13;3.08;;;;;;;;;;5085092;28;20032;-75
2021/11/06 14:26:09;;;;;;;4.63;3.05;;;;;;;;;;5092802;28;20032;-75
2021/11/06 14:28:44;;;;;;;4.85;3.67;;;;;;;;;;5092432;28;20024;-76
2021/11/06 14:31:09;;;;;;;6.60;3.58;;;;;;;;;;5101082;28;20151;-77